Terminal Aerodrome Forecast
Issued by NWS Rapid City, SD

Home | Current Version | Previous Version | Text Only | Print | Product List | Glossary Off
Versions: 1 2 3 4 5 6 7 8 9 10 11 12 13 14

000
FTUS43 KUNR 221751
TAFRAP
TAF
KRAP 221751Z 2218/2318 17015G25KT P6SM BKN100
     FM222200 17015G25KT P6SM VCTS SCT100CB
     FM230200 16007KT P6SM BKN100
     FM231400 32020G30KT P6SM FEW250=

USA.gov is the U.S. government's official web portal to all federal, state and local government web resources and services.